Time;durP1;ratioP1;P1;durP2;ratioP2;P2;SDS_P1;SDS_P2;PMS_P1;PMS_P2;Temp;Humidity;BMP_temperature;BMP_pressure;BME280_temperature;BME280_humidity;BME280_pressure;Samples;Min_cycle;Max_cycle;Signal;HPM_P1;HPM_P2
2023/08/12 00:01:48;;;;;;;28.73;23.53;;;19.00;93.00;;;;;;5073155;28;20036;-48
2023/08/12 00:04:16;;;;;;;31.77;25.25;;;19.10;93.10;;;;;;5073901;28;20039;-48
2023/08/12 00:06:43;;;;;;;25.80;20.67;;;19.00;93.30;;;;;;5073842;28;20090;-48
2023/08/12 00:09:15;;;;;;;26.73;23.88;;;19.00;93.30;;;;;;5074521;28;20038;-47
2023/08/12 00:11:42;;;;;;;23.83;19.05;;;19.10;93.40;;;;;;5073910;28;20082;-47
2023/08/12 00:14:09;;;;;;;28.40;22.58;;;19.00;93.40;;;;;;5073236;28;20024;-46
2023/08/12 00:16:36;;;;;;;25.92;23.20;;;19.00;93.50;;;;;;5066553;28;20024;-47
2023/08/12 00:19:02;;;;;;;33.00;27.05;;;19.00;93.60;;;;;;5070574;28;20056;-47
2023/08/12 00:21:29;;;;;;;27.90;22.73;;;19.00;93.70;;;;;;5060449;28;20701;-45
2023/08/12 00:23:56;;;;;;;23.70;20.95;;;19.00;93.80;;;;;;5059554;28;20035;-45
2023/08/12 00:26:23;;;;;;;24.45;21.38;;;18.90;93.90;;;;;;5073318;28;20020;-46
2023/08/12 00:28:50;;;;;;;27.30;22.67;;;19.00;93.90;;;;;;5064342;28;20449;-46
2023/08/12 00:31:17;;;;;;;23.52;20.95;;;19.00;93.90;;;;;;5065009;28;20037;-45
2023/08/12 00:33:44;;;;;;;29.58;23.83;;;19.00;94.00;;;;;;5062937;28;20082;-46
2023/08/12 00:36:09;;;;;;;24.73;20.33;;;19.00;94.00;;;;;;5062831;28;20069;-45
2023/08/12 00:38:36;;;;;;;32.35;23.70;;;18.90;94.10;;;;;;5055494;28;20095;-46
2023/08/12 00:41:03;;;;;;;30.30;22.02;;;19.00;94.10;;;;;;5056372;28;20112;-45
2023/08/12 00:43:32;;;;;;;21.75;19.48;;;18.90;94.00;;;;;;5066039;28;20701;-49
2023/08/12 00:45:59;;;;;;;28.80;24.90;;;19.00;94.10;;;;;;5061763;28;20029;-49
2023/08/12 00:48:26;;;;;;;20.85;18.65;;;18.90;94.20;;;;;;5055097;28;20044;-47
2023/08/12 00:50:53;;;;;;;26.00;19.42;;;19.00;94.20;;;;;;5069784;28;20052;-47
2023/08/12 00:53:20;;;;;;;26.88;23.58;;;19.00;94.20;;;;;;5056058;28;20090;-46
2023/08/12 00:55:47;;;;;;;31.83;27.33;;;19.00;94.20;;;;;;5073788;28;20020;-46
2023/08/12 00:58:14;;;;;;;34.17;27.02;;;19.00;94.20;;;;;;5055785;28;20614;-47
2023/08/12 01:00:43;;;;;;;32.17;27.73;;;19.00;94.20;;;;;;5069467;28;20024;-48
2023/08/12 01:03:11;;;;;;;30.30;25.65;;;18.90;94.20;;;;;;5055599;28;20048;-48
2023/08/12 01:05:38;;;;;;;32.67;25.17;;;18.90;94.30;;;;;;5072323;28;20032;-47
2023/08/12 01:08:05;;;;;;;32.80;27.58;;;18.90;94.40;;;;;;5073275;28;20024;-46
2023/08/12 01:10:36;;;;;;;30.90;25.13;;;18.90;94.40;;;;;;5073218;28;20319;-46
2023/08/12 01:13:34;;;;;;;29.98;25.63;;;18.90;94.50;;;;;;5068619;28;20388;-46
2023/08/12 01:16:04;;;;;;;28.83;24.60;;;18.90;94.50;;;;;;5067209;28;20021;-45
2023/08/12 01:18:31;;;;;;;30.20;26.35;;;18.90;94.50;;;;;;5035514;28;20048;-45
2023/08/12 01:21:00;;;;;;;35.33;24.48;;;18.90;94.50;;;;;;5035742;28;20044;-46
2023/08/12 01:23:27;;;;;;;28.40;24.30;;;18.90;94.60;;;;;;5062930;28;20388;-47
2023/08/12 01:25:54;;;;;;;29.25;23.63;;;18.80;94.60;;;;;;5068473;28;20335;-47
2023/08/12 01:28:21;;;;;;;31.92;23.98;;;18.80;94.60;;;;;;5071090;28;20056;-46
2023/08/12 01:30:58;;;;;;;34.33;27.25;;;18.80;94.50;;;;;;5048253;28;20071;-46
2023/08/12 01:33:43;;;;;;;30.58;25.70;;;18.90;94.60;;;;;;5071138;28;20016;-45
2023/08/12 01:36:13;;;;;;;26.42;23.30;;;18.90;94.60;;;;;;5054382;28;20103;-45
2023/08/12 01:38:40;;;;;;;29.17;26.13;;;18.90;94.60;;;;;;5070626;28;20534;-46
2023/08/12 01:41:11;;;;;;;37.00;27.67;;;18.90;94.60;;;;;;5054794;28;20483;-45
2023/08/12 01:43:39;;;;;;;38.08;29.20;;;18.80;94.70;;;;;;5054916;28;20034;-46
2023/08/12 01:46:04;;;;;;;33.13;29.65;;;18.80;94.60;;;;;;5069920;28;20056;-45
2023/08/12 01:48:31;;;;;;;40.47;31.35;;;18.80;94.70;;;;;;5071444;28;20492;-46
2023/08/12 01:50:57;;;;;;;32.90;28.50;;;18.80;94.70;;;;;;5054073;28;20025;-45
2023/08/12 01:53:24;;;;;;;35.65;29.38;;;18.80;94.80;;;;;;5054187;28;20090;-45
2023/08/12 01:55:52;;;;;;;31.40;26.25;;;18.70;94.70;;;;;;5071824;28;20024;-46
2023/08/12 01:58:19;;;;;;;37.08;30.13;;;18.80;94.80;;;;;;5072325;28;20032;-47
2023/08/12 02:00:46;;;;;;;38.42;31.58;;;18.80;94.80;;;;;;5069429;28;20402;-45
2023/08/12 02:03:13;;;;;;;40.97;30.55;;;18.80;94.90;;;;;;5071596;28;20032;-46
2023/08/12 02:05:41;;;;;;;34.30;27.13;;;18.80;94.90;;;;;;5072136;28;20115;-46
2023/08/12 02:08:07;;;;;;;33.55;27.42;;;18.80;95.00;;;;;;5070318;28;20028;-48
2023/08/12 02:10:34;;;;;;;38.67;33.22;;;18.80;95.00;;;;;;5072398;28;20029;-47
2023/08/12 02:13:01;;;;;;;44.42;33.00;;;18.80;95.00;;;;;;5071623;28;20441;-48
2023/08/12 02:15:30;;;;;;;38.30;32.22;;;18.70;95.00;;;;;;5071691;28;20024;-47
2023/08/12 02:17:58;;;;;;;40.38;32.33;;;18.70;95.00;;;;;;5071455;28;20032;-46
2023/08/12 02:20:26;;;;;;;44.17;32.67;;;18.70;95.20;;;;;;5070619;28;20657;-47
2023/08/12 02:22:55;;;;;;;40.67;32.88;;;18.70;95.10;;;;;;5070208;28;20107;-46
2023/08/12 02:25:24;;;;;;;43.35;33.03;;;18.70;95.20;;;;;;5055051;28;20453;-47
2023/08/12 02:27:50;;;;;;;39.13;31.87;;;18.70;95.20;;;;;;5053970;28;20046;-46
2023/08/12 02:30:17;;;;;;;39.90;30.42;;;18.70;95.20;;;;;;5070651;28;20407;-45
2023/08/12 02:32:46;;;;;;;45.63;34.55;;;18.70;95.30;;;;;;5071653;28;20029;-45
2023/08/12 02:35:13;;;;;;;43.35;36.83;;;18.70;95.30;;;;;;5071353;28;20467;-45
2023/08/12 02:37:39;;;;;;;38.53;32.33;;;18.80;95.30;;;;;;5051973;28;20136;-45
2023/08/12 02:40:10;;;;;;;47.75;32.13;;;18.70;95.30;;;;;;5063057;28;20122;-45
2023/08/12 02:42:40;;;;;;;40.83;32.92;;;18.70;95.30;;;;;;5055675;28;20016;-45
2023/08/12 02:45:07;;;;;;;44.33;35.33;;;18.70;95.30;;;;;;5071469;28;20028;-46
2023/08/12 02:47:33;;;;;;;38.65;32.88;;;18.80;95.30;;;;;;5070571;28;20476;-45
2023/08/12 02:49:59;;;;;;;34.17;29.98;;;18.70;95.30;;;;;;5070401;28;20052;-44
2023/08/12 02:52:26;;;;;;;36.25;29.23;;;18.80;95.30;;;;;;5034463;28;20430;-46
2023/08/12 02:54:56;;;;;;;36.72;28.83;;;18.70;95.40;;;;;;5034143;28;20045;-47
2023/08/12 02:57:21;;;;;;;48.33;33.58;;;18.80;95.30;;;;;;5064365;28;20037;-46
2023/08/12 02:59:48;;;;;;;42.17;34.60;;;18.70;95.30;;;;;;5071681;28;20039;-46
2023/08/12 03:02:16;;;;;;;48.67;31.48;;;18.70;95.20;;;;;;5066342;28;20090;-46
2023/08/12 03:04:42;;;;;;;43.20;34.15;;;18.70;95.30;;;;;;5066049;28;20453;-46
2023/08/12 03:07:09;;;;;;;39.40;28.80;;;18.70;95.30;;;;;;5071487;28;20119;-46
2023/08/12 03:09:36;;;;;;;41.42;31.88;;;18.70;95.30;;;;;;5053751;28;20017;-47
2023/08/12 03:12:04;;;;;;;40.80;33.45;;;18.70;95.30;;;;;;5072107;28;20026;-46
2023/08/12 03:14:34;;;;;;;45.13;31.38;;;18.70;95.30;;;;;;5072765;28;20027;-46
2023/08/12 03:17:01;;;;;;;37.97;31.35;;;18.60;95.40;;;;;;5063905;28;20029;-46
2023/08/12 03:19:28;;;;;;;35.42;27.83;;;18.60;95.30;;;;;;5056632;28;20404;-47
2023/08/12 03:21:55;;;;;;;36.15;27.63;;;18.60;95.30;;;;;;5045664;28;20032;-47
2023/08/12 03:24:22;;;;;;;31.20;26.52;;;18.60;95.30;;;;;;5074853;28;20029;-46
2023/08/12 03:26:52;;;;;;;29.13;25.77;;;18.60;95.30;;;;;;5074379;28;20056;-47
2023/08/12 03:29:19;;;;;;;37.92;30.88;;;18.60;95.20;;;;;;5075095;28;20365;-49
2023/08/12 03:31:45;;;;;;;32.08;24.80;;;18.50;95.10;;;;;;5056005;28;20025;-46
2023/08/12 03:34:12;;;;;;;30.92;23.65;;;18.50;95.10;;;;;;5072632;28;20025;-46
2023/08/12 03:36:39;;;;;;;32.00;26.33;;;18.40;95.10;;;;;;5055142;28;20041;-47
2023/08/12 03:39:06;;;;;;;34.65;28.35;;;18.40;95.00;;;;;;5060232;28;20398;-47
2023/08/12 03:41:32;;;;;;;31.30;27.05;;;18.40;94.90;;;;;;5067684;28;20425;-47
2023/08/12 03:44:02;;;;;;;34.30;27.40;;;18.40;95.00;;;;;;5074659;28;20056;-47
2023/08/12 03:46:29;;;;;;;30.75;26.25;;;18.30;95.00;;;;;;5072499;28;20108;-47
2023/08/12 03:48:56;;;;;;;31.67;25.27;;;18.30;95.00;;;;;;5061575;28;20643;-46
2023/08/12 03:51:22;;;;;;;30.65;27.40;;;18.30;94.90;;;;;;5054712;28;20029;-47
2023/08/12 03:53:49;;;;;;;35.55;26.55;;;18.20;95.00;;;;;;5037209;28;20068;-46
2023/08/12 03:56:16;;;;;;;34.55;26.55;;;18.20;95.00;;;;;;5069406;28;20389;-46
2023/08/12 03:58:43;;;;;;;34.45;27.92;;;18.20;95.10;;;;;;5074965;28;20033;-46
2023/08/12 04:01:10;;;;;;;39.10;29.65;;;18.30;95.10;;;;;;5070946;28;20029;-46
2023/08/12 04:03:37;;;;;;;38.92;29.90;;;18.20;95.20;;;;;;5074684;28;20024;-46
2023/08/12 04:06:03;;;;;;;33.08;26.83;;;18.20;95.30;;;;;;5073576;28;20033;-46
2023/08/12 04:08:32;;;;;;;34.63;30.35;;;18.20;95.30;;;;;;5058125;28;20158;-46
2023/08/12 04:10:58;;;;;;;34.72;27.90;;;18.20;95.30;;;;;;5051075;28;20036;-46
2023/08/12 04:13:25;;;;;;;41.25;29.88;;;18.20;95.30;;;;;;5056987;28;20473;-46
2023/08/12 04:15:55;;;;;;;36.15;29.63;;;18.30;95.30;;;;;;5050521;28;20083;-47
2023/08/12 04:18:22;;;;;;;;;;;18.30;95.30;;;;;;5056132;28;20025;-45
2023/08/12 04:20:50;;;;;;;36.22;30.35;;;18.20;95.30;;;;;;5073291;28;19908;-48
2023/08/12 04:23:19;;;;;;;36.65;29.20;;;18.30;95.30;;;;;;5053981;28;20025;-45
2023/08/12 04:25:47;;;;;;;35.47;26.30;;;18.30;95.30;;;;;;5072858;28;20041;-46
2023/08/12 04:28:15;;;;;;;31.67;24.55;;;18.30;95.30;;;;;;5062406;28;20029;-46
2023/08/12 04:30:44;;;;;;;33.78;26.33;;;18.30;95.30;;;;;;5061013;28;20142;-46
2023/08/12 04:33:11;;;;;;;32.55;27.83;;;18.30;95.30;;;;;;5063292;28;20024;-46
2023/08/12 04:35:39;;;;;;;33.30;25.02;;;18.30;95.30;;;;;;5062975;28;20040;-46
2023/08/12 04:38:06;;;;;;;31.38;28.10;;;18.40;95.40;;;;;;5065786;28;20373;-46
2023/08/12 04:40:33;;;;;;;33.53;29.55;;;18.40;95.30;;;;;;5064635;28;20029;-47
2023/08/12 04:43:00;;;;;;;28.77;25.58;;;18.40;95.30;;;;;;5061755;28;20107;-46
2023/08/12 04:45:26;;;;;;;31.88;27.50;;;18.40;95.40;;;;;;5064442;28;20031;-46
2023/08/12 04:47:53;;;;;;;28.23;24.65;;;18.40;95.40;;;;;;5061973;28;20107;-46
2023/08/12 04:50:22;;;;;;;27.17;24.27;;;18.40;95.40;;;;;;5064088;28;20052;-46
2023/08/12 04:52:49;;;;;;;23.43;20.93;;;18.40;95.40;;;;;;5064384;28;20485;-45
2023/08/12 04:55:17;;;;;;;24.73;22.17;;;18.50;95.50;;;;;;5066851;28;20290;-46
2023/08/12 04:57:46;;;;;;;29.67;25.67;;;18.50;95.40;;;;;;5071924;28;20032;-46
2023/08/12 05:00:13;;;;;;;23.95;20.40;;;18.60;95.30;;;;;;5066382;28;20055;-46
2023/08/12 05:02:45;;;;;;;20.65;18.55;;;18.60;95.40;;;;;;5053438;28;20543;-48
2023/08/12 05:05:12;;;;;;;25.25;22.63;;;18.60;95.40;;;;;;5073514;28;20342;-46
2023/08/12 05:07:38;;;;;;;23.77;21.35;;;18.70;95.30;;;;;;5072459;28;20384;-46
2023/08/12 05:10:06;;;;;;;22.23;19.75;;;18.70;95.30;;;;;;5068820;28;20067;-46
2023/08/12 05:12:33;;;;;;;24.77;21.83;;;18.70;95.30;;;;;;5052232;28;20051;-47
2023/08/12 05:15:00;;;;;;;20.10;17.92;;;18.70;95.20;;;;;;5073320;28;20334;-46
2023/08/12 05:17:27;;;;;;;20.83;18.52;;;18.80;95.30;;;;;;5050773;28;20040;-46
2023/08/12 05:19:54;;;;;;;24.20;19.52;;;18.80;95.30;;;;;;5053901;28;20083;-46
2023/08/12 05:22:20;;;;;;;18.52;16.55;;;18.90;95.30;;;;;;5072376;28;20358;-46
2023/08/12 05:24:47;;;;;;;19.90;17.65;;;18.90;95.30;;;;;;5068775;28;20048;-46
2023/08/12 05:27:13;;;;;;;22.75;20.45;;;18.90;95.20;;;;;;5044426;28;20660;-47
2023/08/12 05:29:43;;;;;;;21.83;19.63;;;18.90;95.20;;;;;;5042821;28;20040;-47
2023/08/12 05:32:10;;;;;;;23.05;20.50;;;18.90;95.10;;;;;;5059854;28;20048;-47
2023/08/12 05:34:37;;;;;;;26.63;19.98;;;18.90;95.10;;;;;;5068586;28;20025;-49
2023/08/12 05:37:04;;;;;;;18.02;16.15;;;19.00;95.10;;;;;;5055140;28;20064;-47
2023/08/12 05:39:30;;;;;;;20.27;17.80;;;19.00;95.10;;;;;;5055156;28;20056;-47
2023/08/12 05:41:58;;;;;;;22.63;20.40;;;19.00;95.00;;;;;;5071501;28;20064;-47
2023/08/12 05:44:24;;;;;;;21.95;19.75;;;19.10;95.00;;;;;;5064609;28;20473;-47
2023/08/12 05:46:54;;;;;;;23.13;20.83;;;19.00;94.90;;;;;;5060928;28;20033;-51
2023/08/12 05:49:20;;;;;;;21.05;18.83;;;19.00;94.80;;;;;;5063742;28;20333;-47
2023/08/12 05:51:47;;;;;;;24.23;21.65;;;19.00;94.90;;;;;;5060417;28;20036;-47
2023/08/12 05:54:14;;;;;;;22.63;20.27;;;19.10;94.80;;;;;;5065419;28;20048;-47
2023/08/12 05:56:39;;;;;;;20.27;17.50;;;19.10;94.80;;;;;;5039462;28;20132;-46
2023/08/12 05:59:13;;;;;;;21.67;19.38;;;19.10;94.90;;;;;;5063735;28;20409;-49
2023/08/12 06:01:40;;;;;;;18.52;16.70;;;19.20;94.80;;;;;;5051519;28;20028;-47
2023/08/12 06:04:07;;;;;;;23.48;20.92;;;19.20;94.90;;;;;;5070218;28;20017;-47
2023/08/12 06:06:34;;;;;;;18.20;16.35;;;19.30;94.90;;;;;;5063514;28;20017;-47
2023/08/12 06:09:03;;;;;;;24.23;17.45;;;19.30;94.90;;;;;;5071855;28;20028;-48
2023/08/12 06:11:28;;;;;;;24.45;20.20;;;19.30;94.80;;;;;;5069021;28;20032;-47
2023/08/12 06:13:55;;;;;;;25.30;22.70;;;19.30;94.80;;;;;;5045852;28;20062;-48
2023/08/12 06:16:22;;;;;;;22.70;18.58;;;19.30;94.80;;;;;;5039221;28;20024;-47
2023/08/12 06:18:49;;;;;;;22.00;19.67;;;19.40;94.90;;;;;;5056962;28;20477;-48
2023/08/12 06:21:14;;;;;;;21.95;18.63;;;19.40;94.80;;;;;;5060026;28;20068;-47
2023/08/12 06:23:44;;;;;;;24.10;19.98;;;19.40;94.80;;;;;;5058253;28;20056;-49
2023/08/12 06:26:11;;;;;;;19.10;17.20;;;19.40;94.80;;;;;;5045549;28;20496;-48
2023/08/12 06:28:39;;;;;;;19.73;17.65;;;19.50;94.80;;;;;;5053647;28;20044;-48
2023/08/12 06:31:06;;;;;;;21.27;19.02;;;19.60;94.80;;;;;;5069368;28;20040;-47
2023/08/12 06:33:31;;;;;;;20.08;16.90;;;19.60;94.70;;;;;;5072011;28;20024;-49
2023/08/12 06:35:58;;;;;;;14.82;12.43;;;19.80;94.80;;;;;;5047807;28;20463;-48
2023/08/12 06:38:27;;;;;;;18.35;15.93;;;19.80;94.90;;;;;;5032710;28;20041;-51
2023/08/12 06:40:55;;;;;;;14.63;13.10;;;19.80;94.60;;;;;;5050476;28;20067;-50
2023/08/12 06:43:21;;;;;;;18.02;16.13;;;19.90;94.70;;;;;;5039328;28;20040;-52
2023/08/12 06:45:51;;;;;;;16.10;14.40;;;19.90;94.70;;;;;;5041474;28;20488;-48
2023/08/12 06:48:18;;;;;;;15.73;12.95;;;19.90;94.50;;;;;;5047112;28;20037;-50
2023/08/12 06:50:45;;;;;;;18.13;13.70;;;19.90;94.50;;;;;;5028661;28;20044;-49
2023/08/12 06:53:11;;;;;;;12.35;10.63;;;20.00;94.60;;;;;;5045723;28;20040;-50
2023/08/12 06:55:45;;;;;;;16.50;13.50;;;20.10;94.50;;;;;;5030439;28;20024;-49
2023/08/12 06:58:11;;;;;;;16.52;13.57;;;20.30;94.50;;;;;;5049046;28;20017;-50
2023/08/12 07:00:38;;;;;;;14.43;12.23;;;20.40;94.40;;;;;;5045264;28;20046;-53
2023/08/12 07:03:05;;;;;;;13.45;10.95;;;20.40;94.10;;;;;;5029961;28;20728;-53
2023/08/12 07:05:31;;;;;;;13.93;10.18;;;20.50;94.10;;;;;;5045313;28;20119;-55
2023/08/12 07:08:00;;;;;;;10.18;9.18;;;20.60;94.10;;;;;;5029345;28;20025;-55
2023/08/12 07:10:27;;;;;;;9.67;8.63;;;20.70;94.00;;;;;;5036255;28;20037;-49
2023/08/12 07:12:54;;;;;;;9.07;8.02;;;20.90;93.90;;;;;;5040874;28;20271;-52
2023/08/12 07:15:20;;;;;;;9.82;8.25;;;20.90;93.60;;;;;;5050694;28;20488;-49
2023/08/12 07:17:47;;;;;;;13.35;9.50;;;20.90;93.50;;;;;;5024453;28;20168;-49
2023/08/12 07:20:14;;;;;;;9.70;7.97;;;21.10;93.40;;;;;;5043690;28;20056;-49
2023/08/12 07:22:41;;;;;;;13.50;8.75;;;21.30;93.30;;;;;;5036379;28;20151;-51
2023/08/12 07:25:08;;;;;;;9.55;8.23;;;21.40;92.60;;;;;;5041537;28;20028;-53
2023/08/12 07:27:34;;;;;;;12.48;7.40;;;21.40;92.20;;;;;;5032781;28;20043;-50
2023/08/12 07:30:01;;;;;;;9.32;7.85;;;21.60;91.80;;;;;;5054074;28;20438;-51
2023/08/12 07:32:28;;;;;;;10.90;6.85;;;21.70;90.60;;;;;;5032781;28;20052;-51
2023/08/12 07:34:55;;;;;;;11.43;7.05;;;21.90;90.70;;;;;;5052408;28;20036;-50
2023/08/12 07:37:22;;;;;;;9.32;5.53;;;22.10;89.30;;;;;;5060456;28;20721;-49
2023/08/12 07:39:49;;;;;;;13.35;6.35;;;22.30;89.90;;;;;;5075041;28;20069;-51
2023/08/12 07:42:16;;;;;;;9.55;6.45;;;22.40;88.70;;;;;;5076072;28;20021;-50
2023/08/12 07:44:43;;;;;;;7.68;6.57;;;22.50;87.60;;;;;;5065487;28;20037;-52
2023/08/12 07:47:13;;;;;;;8.88;6.88;;;22.40;87.40;;;;;;5072006;28;20111;-53
2023/08/12 07:49:40;;;;;;;15.77;7.45;;;22.40;87.40;;;;;;5067473;28;20087;-53
2023/08/12 07:52:07;;;;;;;9.77;7.15;;;22.40;87.00;;;;;;5063464;28;20045;-52
2023/08/12 07:54:36;;;;;;;7.78;5.53;;;22.50;87.30;;;;;;5055360;28;20353;-52
2023/08/12 07:57:03;;;;;;;8.02;5.55;;;22.60;87.30;;;;;;5058075;28;20445;-51
2023/08/12 07:59:33;;;;;;;7.45;5.30;;;22.80;87.30;;;;;;5061509;28;20037;-53
2023/08/12 08:02:01;;;;;;;8.35;5.15;;;22.90;87.20;;;;;;5067092;28;20494;-53
2023/08/12 08:04:30;;;;;;;8.38;6.63;;;23.10;86.90;;;;;;5073028;28;20097;-53
2023/08/12 08:06:57;;;;;;;9.00;6.00;;;23.10;85.60;;;;;;5072079;28;20032;-53
2023/08/12 08:09:23;;;;;;;8.02;5.75;;;23.10;84.40;;;;;;5073833;28;20060;-54
2023/08/12 08:11:50;;;;;;;8.38;4.95;;;23.20;84.70;;;;;;5052224;28;20029;-51
2023/08/12 08:14:18;;;;;;;7.43;4.60;;;23.50;84.80;;;;;;5068635;28;20025;-54
2023/08/12 08:16:49;;;;;;;6.53;4.45;;;23.80;83.50;;;;;;5067045;28;20653;-53
2023/08/12 08:19:16;;;;;;;7.07;4.13;;;23.80;82.70;;;;;;5080509;28;20103;-50
2023/08/12 08:21:45;;;;;;;6.50;4.97;;;23.60;83.60;;;;;;5076497;28;20043;-52
2023/08/12 08:24:14;;;;;;;8.82;4.50;;;23.40;82.80;;;;;;5094546;28;20024;-50
2023/08/12 08:26:41;;;;;;;11.30;4.53;;;23.40;82.60;;;;;;5092737;28;20123;-54
2023/08/12 08:29:09;;;;;;;6.50;4.78;;;23.30;83.40;;;;;;5094339;28;20024;-51
2023/08/12 08:31:35;;;;;;;6.47;4.55;;;23.10;83.80;;;;;;5093793;28;20028;-52
2023/08/12 08:34:02;;;;;;;10.55;6.60;;;23.00;84.50;;;;;;5093050;28;20039;-53
2023/08/12 08:36:28;;;;;;;9.75;6.50;;;22.90;84.70;;;;;;5093209;28;20044;-52
2023/08/12 08:38:55;;;;;;;8.93;5.13;;;22.90;85.40;;;;;;5076765;28;20050;-52
2023/08/12 08:41:22;;;;;;;9.20;6.80;;;22.80;86.20;;;;;;5066141;28;20054;-53
2023/08/12 08:43:55;;;;;;;9.30;5.47;;;22.90;85.90;;;;;;5086530;28;20029;-53
2023/08/12 08:46:23;;;;;;;8.75;6.07;;;22.90;85.80;;;;;;5043729;28;20032;-52
2023/08/12 08:48:51;;;;;;;8.45;5.88;;;22.90;85.90;;;;;;5053553;28;20052;-52
2023/08/12 08:51:20;;;;;;;8.25;6.20;;;23.00;85.30;;;;;;5057389;28;20134;-56
2023/08/12 08:53:47;;;;;;;8.05;4.80;;;22.90;84.80;;;;;;5073800;28;20024;-56
2023/08/12 08:56:14;;;;;;;6.90;4.90;;;22.90;85.50;;;;;;5064183;28;20033;-50
2023/08/12 08:58:41;;;;;;;6.13;4.13;;;22.90;85.50;;;;;;5053809;28;20031;-55
2023/08/12 09:01:09;;;;;;;7.07;4.88;;;23.00;85.50;;;;;;5059214;28;20477;-55
2023/08/12 09:03:39;;;;;;;9.27;4.55;;;23.10;84.70;;;;;;5053492;28;20032;-52
2023/08/12 09:06:07;;;;;;;8.23;5.10;;;23.10;84.30;;;;;;5056324;28;20021;-57
2023/08/12 09:08:36;;;;;;;9.50;3.75;;;22.90;84.20;;;;;;5054354;28;20040;-52
2023/08/12 09:11:03;;;;;;;8.05;4.85;;;22.90;85.10;;;;;;5068693;28;20633;-52
2023/08/12 09:13:35;;;;;;;5.00;3.42;;;22.90;84.40;;;;;;5053256;28;20029;-56
2023/08/12 09:16:04;;;;;;;6.85;4.35;;;22.80;84.60;;;;;;5047159;28;20060;-56
2023/08/12 09:18:34;;;;;;;5.53;3.97;;;22.60;84.60;;;;;;5056346;28;20123;-53
2023/08/12 09:21:01;;;;;;;8.10;4.25;;;22.60;85.20;;;;;;5072944;28;20037;-54
2023/08/12 09:23:28;;;;;;;6.60;3.78;;;22.40;85.20;;;;;;5055039;28;20381;-54
2023/08/12 09:25:55;;;;;;;7.95;4.20;;;22.40;85.40;;;;;;5058846;28;20106;-55
2023/08/12 09:28:24;;;;;;;6.38;3.40;;;22.40;85.70;;;;;;5056354;28;20032;-53
2023/08/12 09:30:52;;;;;;;;;;;22.40;86.20;;;;;;5066252;28;20433;-54
2023/08/12 09:33:26;;;;;;;7.60;4.43;;;22.40;86.50;;;;;;5035210;28;19919;-56
2023/08/12 09:35:56;;;;;;;5.32;3.10;;;22.40;86.60;;;;;;5067931;28;20031;-54
2023/08/12 09:38:26;;;;;;;6.75;4.80;;;22.40;86.70;;;;;;5072402;28;20052;-54
2023/08/12 09:40:54;;;;;;;10.07;4.63;;;22.30;86.40;;;;;;5069338;28;20449;-54
2023/08/12 09:43:26;;;;;;;7.80;4.53;;;22.20;86.70;;;;;;5052795;28;20361;-55
2023/08/12 09:45:57;;;;;;;6.10;4.15;;;22.10;86.80;;;;;;5065429;28;20080;-50
2023/08/12 09:48:25;;;;;;;6.88;4.35;;;21.90;87.20;;;;;;5052364;28;20100;-52
2023/08/12 09:50:52;;;;;;;5.43;4.10;;;21.90;87.50;;;;;;5044740;28;20437;-48
2023/08/12 09:53:21;;;;;;;8.02;4.18;;;21.90;88.00;;;;;;5071219;28;20048;-48
2023/08/12 09:55:53;;;;;;;7.00;4.07;;;21.70;88.30;;;;;;5070024;28;20094;-46
2023/08/12 09:58:23;;;;;;;6.88;4.80;;;21.60;88.70;;;;;;5053863;28;20037;-45
2023/08/12 10:00:52;;;;;;;5.90;4.75;;;21.60;89.20;;;;;;5071678;28;20059;-45
2023/08/12 10:03:19;;;;;;;6.80;4.97;;;21.50;89.70;;;;;;5072634;28;20569;-44
2023/08/12 10:05:49;;;;;;;6.35;4.30;;;21.40;89.90;;;;;;5070747;28;20028;-47
2023/08/12 10:08:17;;;;;;;7.35;3.90;;;21.40;90.10;;;;;;5068818;28;20032;-48
2023/08/12 10:10:47;;;;;;;7.00;4.30;;;21.30;90.30;;;;;;5071718;28;20033;-46
2023/08/12 10:13:13;;;;;;;6.65;4.55;;;21.20;90.70;;;;;;5070837;28;20024;-47
2023/08/12 10:15:40;;;;;;;6.07;4.50;;;21.10;90.80;;;;;;5066584;28;21835;-47
2023/08/12 10:18:08;;;;;;;7.15;3.70;;;21.00;91.20;;;;;;5042403;28;20073;-48
2023/08/12 10:20:36;;;;;;;6.60;3.70;;;21.00;91.40;;;;;;5065535;28;20036;-46
2023/08/12 10:23:06;;;;;;;4.95;3.70;;;21.00;91.70;;;;;;5070775;28;20032;-48
2023/08/12 10:25:34;;;;;;;5.53;3.65;;;21.00;91.90;;;;;;5071080;28;20025;-47
2023/08/12 10:28:00;;;;;;;8.75;4.45;;;21.10;92.10;;;;;;5072333;28;20393;-51
2023/08/12 10:30:31;;;;;;;5.78;4.22;;;21.10;92.20;;;;;;5052906;28;20024;-48
2023/08/12 10:33:01;;;;;;;8.85;5.40;;;21.10;92.30;;;;;;5070527;28;20108;-47
2023/08/12 10:35:46;;;;;;;7.78;5.70;;;21.10;92.40;;;;;;5062147;28;20071;-49
2023/08/12 10:38:18;;;;;;;9.20;6.13;;;21.10;92.30;;;;;;5062453;28;20055;-47
2023/08/12 10:40:45;;;;;;;8.50;4.60;;;21.00;92.50;;;;;;5059686;28;20396;-46
2023/08/12 10:43:20;;;;;;;8.00;6.25;;;21.00;92.50;;;;;;5044310;28;20056;-47
2023/08/12 10:45:54;;;;;;;7.63;5.20;;;21.00;92.60;;;;;;5042649;28;20086;-46
2023/08/12 10:48:25;;;;;;;8.15;6.07;;;21.00;92.70;;;;;;5068239;28;20422;-46
2023/08/12 10:50:57;;;;;;;6.40;5.00;;;21.00;92.80;;;;;;5063639;28;20104;-49
2023/08/12 10:53:41;;;;;;;5.80;4.82;;;21.00;93.00;;;;;;5063499;28;20772;-47
2023/08/12 10:56:14;;;;;;;6.28;4.82;;;21.10;93.00;;;;;;5050487;28;20354;-48
2023/08/12 10:58:58;;;;;;;9.05;7.28;;;21.10;93.10;;;;;;5063892;28;20444;-47
2023/08/12 11:01:30;;;;;;;8.32;7.50;;;21.10;93.00;;;;;;5061179;28;20043;-50
2023/08/12 11:03:58;;;;;;;8.10;7.22;;;20.90;92.90;;;;;;5056782;28;20029;-50
2023/08/12 11:06:28;;;;;;;8.18;6.95;;;20.90;93.00;;;;;;5059703;28;20013;-51
2023/08/12 11:08:56;;;;;;;7.10;5.88;;;20.80;93.10;;;;;;5045275;28;20029;-49
2023/08/12 11:11:24;;;;;;;11.05;8.77;;;20.80;93.20;;;;;;5066110;28;20068;-49
2023/08/12 11:13:56;;;;;;;10.20;7.85;;;20.70;93.20;;;;;;5034800;28;20040;-47
2023/08/12 11:16:35;;;;;;;11.68;9.68;;;20.60;93.30;;;;;;5048641;28;20035;-50
2023/08/12 11:19:03;;;;;;;8.73;7.75;;;20.60;93.50;;;;;;5071645;28;20365;-47
2023/08/12 11:21:36;;;;;;;10.38;8.68;;;20.60;93.70;;;;;;5068150;28;20115;-48
2023/08/12 11:24:03;;;;;;;14.25;10.90;;;20.60;93.90;;;;;;5071558;28;20322;-47
2023/08/12 11:26:30;;;;;;;11.27;9.82;;;20.70;94.10;;;;;;5070508;28;20027;-48
2023/08/12 11:28:57;;;;;;;12.98;11.48;;;20.80;94.20;;;;;;5062722;28;20025;-46
2023/08/12 11:31:25;;;;;;;12.23;11.13;;;20.80;94.30;;;;;;5060247;28;20040;-47
2023/08/12 11:33:53;;;;;;;13.68;12.27;;;20.90;94.10;;;;;;5072570;28;20052;-49
2023/08/12 11:36:19;;;;;;;14.07;11.82;;;20.80;94.10;;;;;;5061788;28;20102;-47
2023/08/12 11:38:49;;;;;;;13.10;11.82;;;20.90;94.30;;;;;;5049842;28;20067;-47
2023/08/12 11:41:18;;;;;;;11.23;9.57;;;20.90;94.30;;;;;;5066387;28;20033;-47
2023/08/12 11:43:43;;;;;;;9.75;8.52;;;20.80;94.10;;;;;;5060615;28;20114;-47
2023/08/12 11:46:10;;;;;;;10.23;9.13;;;20.80;93.90;;;;;;5057368;28;20029;-48
2023/08/12 11:48:39;;;;;;;10.15;8.82;;;20.80;93.70;;;;;;5049603;28;20033;-47
2023/08/12 11:51:07;;;;;;;9.77;8.68;;;20.70;93.60;;;;;;5067798;28;20028;-47
2023/08/12 11:53:35;;;;;;;11.40;7.57;;;20.60;93.50;;;;;;5043235;28;20036;-47
2023/08/12 11:56:01;;;;;;;9.85;7.85;;;20.60;93.40;;;;;;5056841;28;20469;-49
2023/08/12 11:58:36;;;;;;;9.00;8.20;;;20.50;93.50;;;;;;5055620;28;20067;-47
2023/08/12 12:01:03;;;;;;;9.77;6.88;;;20.50;93.60;;;;;;5056350;28;20029;-47
2023/08/12 12:03:30;;;;;;;8.30;6.57;;;20.40;93.30;;;;;;5051752;28;20032;-49
2023/08/12 12:05:56;;;;;;;6.97;6.15;;;20.40;93.50;;;;;;5044788;28;20036;-48
2023/08/12 12:08:25;;;;;;;9.93;6.38;;;20.40;93.60;;;;;;5063210;28;20037;-47
2023/08/12 12:10:55;;;;;;;10.25;6.72;;;20.40;93.70;;;;;;5068396;28;20028;-47
2023/08/12 12:13:23;;;;;;;7.32;5.95;;;20.30;93.50;;;;;;5072481;28;20051;-49
2023/08/12 12:15:49;;;;;;;8.00;5.72;;;20.30;93.70;;;;;;5071719;28;20078;-49
2023/08/12 12:18:16;;;;;;;7.80;5.28;;;20.20;93.40;;;;;;5061343;28;20034;-50
2023/08/12 12:20:59;;;;;;;6.65;5.57;;;20.10;93.60;;;;;;5063668;28;20066;-49
2023/08/12 12:23:31;;;;;;;7.20;5.53;;;20.20;93.80;;;;;;5068142;28;20025;-49
2023/08/12 12:26:01;;;;;;;7.72;5.78;;;20.20;93.80;;;;;;5066392;28;20058;-52
2023/08/12 12:28:31;;;;;;;9.90;6.75;;;20.20;93.80;;;;;;5062880;28;20039;-49
2023/08/12 12:30:58;;;;;;;;;;;20.20;93.90;;;;;;5068800;28;20027;-49
2023/08/12 12:33:25;;;;;;;7.22;5.53;;;20.30;93.90;;;;;;5061902;28;19908;-48
2023/08/12 12:35:51;;;;;;;11.40;6.65;;;20.30;94.00;;;;;;5060766;28;20412;-50
2023/08/12 12:38:18;;;;;;;8.27;5.85;;;20.30;94.10;;;;;;5059475;28;20381;-48
2023/08/12 12:40:45;;;;;;;7.63;5.97;;;20.30;94.10;;;;;;5065797;28;20036;-47